createdAt,value
2024-02-27T00:01:26.453Z,99540.17
2024-02-27T00:04:02.996Z,99546.15
2024-02-27T00:06:32.558Z,99547.23
2024-02-27T00:09:01.739Z,99545.41
2024-02-27T00:11:31.749Z,99548.70
2024-02-27T00:14:06.357Z,99552.88
2024-02-27T00:16:40.990Z,99554.95
2024-02-27T00:19:11.009Z,99552.91
2024-02-27T00:21:48.589Z,99551.96
2024-02-27T00:24:20.073Z,99550.09
2024-02-27T00:26:52.333Z,99553.52
2024-02-27T00:29:27.201Z,99558.48
2024-02-27T00:31:58.184Z,99556.95
2024-02-27T00:34:30.345Z,99558.60
2024-02-27T00:37:02.806Z,99563.57
2024-02-27T00:39:34.836Z,99571.80
2024-02-27T00:42:10.580Z,99573.84
2024-02-27T00:45:01.500Z,99576.70
2024-02-27T00:47:54.275Z,99575.42
2024-02-27T00:50:29.304Z,99576.74
2024-02-27T00:53:01.818Z,99582.55
2024-02-27T00:55:34.252Z,99583.45
2024-02-27T00:58:19.936Z,99580.88
2024-02-27T01:00:49.310Z,99590.07
2024-02-27T01:03:23.928Z,99598.20
2024-02-27T01:05:53.124Z,99592.80
2024-02-27T01:08:26.971Z,99588.25
2024-02-27T01:10:58.013Z,99588.13
2024-02-27T01:13:29.452Z,99591.70
2024-02-27T01:16:08.830Z,99592.20
2024-02-27T01:18:37.997Z,99590.59
2024-02-27T01:21:10.165Z,99580.73
2024-02-27T01:23:41.819Z,99573.42
2024-02-27T01:26:13.435Z,99572.84
2024-02-27T01:28:48.521Z,99566.93
2024-02-27T01:31:17.512Z,99570.88
2024-02-27T01:33:52.732Z,99566.37
2024-02-27T01:36:24.350Z,99564.48
2024-02-27T01:38:55.505Z,99567.91
2024-02-27T01:41:24.529Z,99569.42
2024-02-27T01:44:03.386Z,99571.66
2024-02-27T01:46:34.775Z,99573.97
2024-02-27T01:49:04.426Z,99575.39
2024-02-27T01:51:33.492Z,99571.48
2024-02-27T01:54:12.078Z,99583.23
2024-02-27T01:56:46.060Z,99604.12
2024-02-27T01:59:27.399Z,99612.94
2024-02-27T02:02:04.491Z,99619.41
2024-02-27T02:04:37.058Z,99616.73
2024-02-27T02:07:09.394Z,99622.30
2024-02-27T02:09:41.332Z,99625.55
2024-02-27T02:12:17.010Z,99628.48
2024-02-27T02:14:50.025Z,99629.43
2024-02-27T02:17:21.705Z,99637.18
2024-02-27T02:19:50.608Z,99635.80
2024-02-27T02:22:25.237Z,99639.98
2024-02-27T02:25:03.944Z,99647.77
2024-02-27T02:27:39.716Z,99648.84
2024-02-27T02:30:12.807Z,99649.09
2024-02-27T02:32:51.511Z,99645.30
2024-02-27T02:35:25.078Z,99644.29
2024-02-27T02:38:05.543Z,99654.75
2024-02-27T02:40:36.996Z,99665.39
2024-02-27T02:43:12.317Z,99666.57
2024-02-27T02:45:43.868Z,99673.02
2024-02-27T02:48:18.910Z,99675.17
2024-02-27T02:50:53.443Z,99678.53
2024-02-27T02:53:28.405Z,99674.92
2024-02-27T02:55:59.860Z,99676.55
2024-02-27T02:58:31.702Z,99671.48
2024-02-27T03:01:06.758Z,99674.11
2024-02-27T03:03:35.586Z,99676.40
2024-02-27T03:06:17.593Z,99674.10
2024-02-27T03:08:49.683Z,99674.66
2024-02-27T03:11:24.703Z,99677.64
2024-02-27T03:13:56.468Z,99682.80
2024-02-27T03:16:28.739Z,99683.22
2024-02-27T03:19:00.343Z,99679.78
2024-02-27T03:21:36.004Z,99681.14
2024-02-27T03:24:11.168Z,99680.52
2024-02-27T03:26:42.635Z,99680.39
2024-02-27T03:29:22.905Z,99682.40
2024-02-27T03:31:55.261Z,99678.27
2024-02-27T03:34:27.551Z,99683.95
2024-02-27T03:36:59.607Z,99686.55
2024-02-27T03:39:31.644Z,99688.52
2024-02-27T03:42:03.479Z,99687.04
2024-02-27T03:44:32.942Z,99686.51
2024-02-27T03:47:04.446Z,99688.88
2024-02-27T03:49:38.226Z,99691.89
2024-02-27T03:52:07.379Z,99698.30
2024-02-27T03:54:43.037Z,99705.93
2024-02-27T03:57:12.201Z,99709.75
2024-02-27T03:59:41.145Z,99710.55
2024-02-27T04:02:12.905Z,99703.98
2024-02-27T04:04:45.455Z,99704.60
2024-02-27T04:07:34.639Z,99710.13
2024-02-27T04:10:15.585Z,99712.10
2024-02-27T04:12:47.438Z,99707.73
2024-02-27T04:15:36.270Z,99711.50
2024-02-27T04:18:09.129Z,99718.38
2024-02-27T04:20:38.102Z,99722.73
2024-02-27T04:23:09.745Z,99725.31
2024-02-27T04:25:41.717Z,99726.11
2024-02-27T04:28:10.496Z,99727.63
2024-02-27T04:30:39.741Z,99729.83
2024-02-27T04:33:08.908Z,99723.66
2024-02-27T04:35:50.165Z,99714.05
2024-02-27T04:38:19.044Z,99721.46
2024-02-27T04:40:48.215Z,99717.47
2024-02-27T04:43:25.103Z,99724.87
2024-02-27T04:45:54.019Z,99730.15
2024-02-27T04:48:28.121Z,99729.58
2024-02-27T04:50:57.002Z,99736.02
2024-02-27T04:53:26.105Z,99738.05
2024-02-27T04:55:57.884Z,99741.95
2024-02-27T04:58:29.004Z,99737.41
2024-02-27T05:01:00.361Z,99739.50
2024-02-27T05:03:51.018Z,99739.67
2024-02-27T05:06:20.463Z,99742.50
2024-02-27T05:08:55.602Z,99740.98
2024-02-27T05:11:24.331Z,99735.59
2024-02-27T05:13:56.252Z,99746.98
2024-02-27T05:16:28.115Z,99751.63
2024-02-27T05:18:57.014Z,99755.02
2024-02-27T05:21:29.676Z,99751.55
2024-02-27T05:24:01.538Z,99751.45
2024-02-27T05:26:30.521Z,99757.11
2024-02-27T05:29:03.116Z,99752.58
2024-02-27T05:31:35.689Z,99759.41
2024-02-27T05:34:09.035Z,99762.69
2024-02-27T05:36:38.172Z,99766.56
2024-02-27T05:39:07.333Z,99761.52
2024-02-27T05:41:42.692Z,99764.95
2024-02-27T05:44:22.044Z,99766.95
2024-02-27T05:46:50.757Z,99771.06
2024-02-27T05:49:20.106Z,99775.59
2024-02-27T05:51:52.116Z,99778.61
2024-02-27T05:54:21.736Z,99771.25
2024-02-27T05:56:50.403Z,99777.02
2024-02-27T05:59:22.160Z,99780.42
2024-02-27T06:01:53.407Z,99780.96
2024-02-27T06:04:22.250Z,99783.96
2024-02-27T06:06:54.373Z,99783.88
2024-02-27T06:09:30.284Z,99784.16
2024-02-27T06:11:59.758Z,99790.60
2024-02-27T06:14:39.995Z,99796.25
2024-02-27T06:17:09.974Z,99809.33
2024-02-27T06:19:46.902Z,99807.98
2024-02-27T06:22:18.652Z,99815.33
2024-02-27T06:24:59.920Z,99822.63
2024-02-27T06:27:33.044Z,99832.06
2024-02-27T06:30:12.399Z,99835.92
2024-02-27T06:32:49.224Z,99836.61
2024-02-27T06:35:22.677Z,99836.33
2024-02-27T06:38:06.093Z,99832.76
2024-02-27T06:40:45.069Z,99816.67
2024-02-27T06:43:23.852Z,99807.08
2024-02-27T06:45:58.321Z,99805.84
2024-02-27T06:48:37.984Z,99815.59
2024-02-27T06:51:11.521Z,99817.48
2024-02-27T06:53:43.435Z,99824.39
2024-02-27T06:56:13.555Z,99833.27
2024-02-27T06:58:46.457Z,99827.88
2024-02-27T07:01:27.763Z,99830.52
2024-02-27T07:04:00.207Z,99844.92
2024-02-27T07:06:32.555Z,99853.88
2024-02-27T07:09:02.198Z,99867.52
2024-02-27T07:11:33.323Z,99861.73
2024-02-27T07:14:03.220Z,99869.52
2024-02-27T07:16:32.433Z,99885.81
2024-02-27T07:19:02.400Z,99894.80
2024-02-27T07:21:43.955Z,99889.02
2024-02-27T07:24:13.513Z,99890.65
2024-02-27T07:26:54.318Z,99888.08
2024-02-27T07:29:23.299Z,99884.10
2024-02-27T07:31:55.273Z,99886.70
2024-02-27T07:34:32.999Z,99893.82
2024-02-27T07:37:08.066Z,99901.34
2024-02-27T07:39:40.057Z,99899.18
2024-02-27T07:42:09.679Z,99894.33
2024-02-27T07:44:47.691Z,99898.83
2024-02-27T07:47:19.539Z,99904.60
2024-02-27T07:49:51.417Z,99907.40
2024-02-27T07:52:22.063Z,99902.65
2024-02-27T07:54:54.079Z,99898.52
2024-02-27T07:57:26.782Z,99895.77
2024-02-27T08:00:01.712Z,99900.38
2024-02-27T08:02:40.136Z,99907.70
2024-02-27T08:05:10.348Z,99907.60
2024-02-27T08:07:46.502Z,99913.08
2024-02-27T08:10:18.398Z,99918.90
2024-02-27T08:12:49.840Z,99926.55
2024-02-27T08:15:19.611Z,99916.70
2024-02-27T08:17:51.918Z,99930.17
2024-02-27T08:20:21.802Z,99930.89
2024-02-27T08:22:52.376Z,99936.20
2024-02-27T08:25:34.544Z,99937.05
2024-02-27T08:28:15.914Z,99943.06
2024-02-27T08:30:48.255Z,99944.40
2024-02-27T08:33:21.103Z,99938.73
2024-02-27T08:35:57.411Z,99933.58
2024-02-27T08:38:32.796Z,99934.08
2024-02-27T08:41:05.441Z,99934.41
2024-02-27T08:43:37.648Z,99939.88
2024-02-27T08:46:18.098Z,99945.29
2024-02-27T08:48:55.961Z,99948.65
2024-02-27T08:51:25.169Z,99952.81
2024-02-27T08:53:54.911Z,99954.44
2024-02-27T08:56:26.671Z,99948.45
2024-02-27T08:58:59.143Z,99947.16
2024-02-27T09:01:31.537Z,99952.63
2024-02-27T09:04:02.414Z,99956.39
2024-02-27T09:06:32.285Z,99961.30
2024-02-27T09:09:13.911Z,99959.17
2024-02-27T09:11:49.161Z,99957.59
2024-02-27T09:14:27.377Z,99959.40
2024-02-27T09:16:57.122Z,99961.40
2024-02-27T09:19:30.174Z,99960.63
2024-02-27T09:22:02.004Z,99959.19
2024-02-27T09:24:38.766Z,99967.00
2024-02-27T09:27:11.184Z,99968.98
2024-02-27T09:29:56.582Z,99962.55
2024-02-27T09:32:29.070Z,99959.39
2024-02-27T09:35:00.924Z,99954.48
2024-02-27T09:37:33.285Z,99956.52
2024-02-27T09:40:05.781Z,99959.30
2024-02-27T09:42:36.831Z,99963.71
2024-02-27T09:45:12.911Z,99956.80
2024-02-27T09:47:47.803Z,99964.00
2024-02-27T09:50:20.957Z,99971.26
2024-02-27T09:52:55.408Z,99970.02
2024-02-27T09:55:29.434Z,99967.66
2024-02-27T09:58:05.252Z,99976.02
2024-02-27T10:00:35.117Z,99979.16
2024-02-27T10:03:05.701Z,99979.09
2024-02-27T10:05:39.891Z,99983.24
2024-02-27T10:08:24.339Z,99989.52
2024-02-27T10:10:59.780Z,99991.69
2024-02-27T10:13:36.093Z,99992.35
2024-02-27T10:16:11.503Z,99993.38
2024-02-27T10:18:43.033Z,99996.75
2024-02-27T10:21:12.210Z,100000.69
2024-02-27T10:23:40.992Z,100002.82
2024-02-27T10:26:13.884Z,100003.00
2024-02-27T10:28:45.412Z,100003.18
2024-02-27T10:31:17.212Z,99995.23
2024-02-27T10:33:47.450Z,99995.73
2024-02-27T10:36:19.497Z,99993.28
2024-02-27T10:38:48.453Z,99990.40
2024-02-27T10:41:17.153Z,100000.59
2024-02-27T10:43:45.945Z,99997.67
2024-02-27T10:46:17.873Z,99998.90
2024-02-27T10:48:47.151Z,100001.38
2024-02-27T10:51:16.576Z,100004.79
2024-02-27T10:53:49.782Z,99997.58
2024-02-27T10:56:19.597Z,99994.66
2024-02-27T10:58:50.326Z,100001.90
2024-02-27T11:01:22.508Z,100003.02
2024-02-27T11:03:55.132Z,99996.11
2024-02-27T11:06:27.386Z,99993.02
2024-02-27T11:09:11.489Z,99995.21
2024-02-27T11:11:44.168Z,99997.81
2024-02-27T11:14:16.561Z,99998.31
2024-02-27T11:16:51.468Z,99998.98
2024-02-27T11:19:26.171Z,99994.59
2024-02-27T11:21:55.957Z,99977.47
2024-02-27T11:24:24.739Z,99991.83
2024-02-27T11:26:54.444Z,99989.65
2024-02-27T11:29:23.613Z,99991.45
2024-02-27T11:31:53.378Z,99989.48
2024-02-27T11:34:32.739Z,99989.18
2024-02-27T11:37:14.689Z,99983.70
2024-02-27T11:39:47.915Z,99985.67
2024-02-27T11:42:44.499Z,99983.17
2024-02-27T11:45:15.813Z,99983.38
2024-02-27T11:47:53.668Z,99984.52
2024-02-27T11:50:41.489Z,99981.91
2024-02-27T11:53:23.206Z,99989.75
2024-02-27T11:55:59.649Z,99986.86
2024-02-27T11:58:31.521Z,99995.35
2024-02-27T12:01:07.142Z,99994.32
2024-02-27T12:03:42.503Z,99997.50
2024-02-27T12:06:14.412Z,100004.38
2024-02-27T12:08:54.312Z,100003.59
2024-02-27T12:11:25.544Z,99999.31
2024-02-27T12:13:54.432Z,99994.63
2024-02-27T12:16:27.881Z,99998.72
2024-02-27T12:19:02.957Z,100001.08
2024-02-27T12:21:38.419Z,100009.16
2024-02-27T12:24:18.906Z,100008.08
2024-02-27T12:26:51.269Z,100007.10
2024-02-27T12:29:20.658Z,99997.00
2024-02-27T12:31:52.727Z,100011.55
2024-02-27T12:34:30.799Z,100013.15
2024-02-27T12:37:05.878Z,100016.20
2024-02-27T12:39:38.880Z,100018.07
2024-02-27T12:42:09.081Z,100018.27
2024-02-27T12:44:41.323Z,100022.52
2024-02-27T12:47:17.102Z,100025.88
2024-02-27T12:49:49.021Z,100026.79
2024-02-27T12:52:21.501Z,100029.14
2024-02-27T12:54:50.809Z,100024.69
2024-02-27T12:57:20.612Z,100023.70
2024-02-27T12:59:51.442Z,100021.22
2024-02-27T13:02:28.443Z,100019.25
2024-02-27T13:05:00.295Z,100019.83
2024-02-27T13:07:41.506Z,100018.35
2024-02-27T13:10:12.440Z,100019.84
2024-02-27T13:12:41.071Z,100023.14
2024-02-27T13:15:16.213Z,100021.56
2024-02-27T13:17:48.017Z,100025.73
2024-02-27T13:20:26.855Z,100034.65
2024-02-27T13:23:00.452Z,100035.01
2024-02-27T13:25:36.668Z,100035.92
2024-02-27T13:28:06.520Z,100036.77
2024-02-27T13:30:43.401Z,100036.82
2024-02-27T13:33:13.758Z,100033.34
2024-02-27T13:35:55.451Z,100031.95
2024-02-27T13:38:25.247Z,100033.05
2024-02-27T13:40:55.789Z,100031.49
2024-02-27T13:43:25.092Z,100024.47
2024-02-27T13:45:59.828Z,100019.91
2024-02-27T13:48:31.554Z,100022.44
2024-02-27T13:51:04.499Z,100022.73
2024-02-27T13:53:38.844Z,100027.19
2024-02-27T13:56:09.258Z,100027.64
2024-02-27T13:58:38.487Z,100026.64
2024-02-27T14:01:09.504Z,100028.30
2024-02-27T14:03:40.804Z,100031.59
2024-02-27T14:06:10.312Z,100026.61
2024-02-27T14:08:40.915Z,100022.69
2024-02-27T14:11:10.342Z,100030.34
2024-02-27T14:13:41.752Z,100029.27
2024-02-27T14:16:11.975Z,100030.90
2024-02-27T14:18:41.286Z,100030.95
2024-02-27T14:21:10.701Z,100029.08
2024-02-27T14:23:39.974Z,100026.95
2024-02-27T14:26:09.382Z,100024.20
2024-02-27T14:28:38.681Z,100023.88
2024-02-27T14:31:08.080Z,100025.44
2024-02-27T14:33:37.149Z,100030.78
2024-02-27T14:36:06.663Z,100031.39
2024-02-27T14:38:40.663Z,100036.45
2024-02-27T14:41:09.987Z,100032.44
2024-02-27T14:43:39.930Z,100028.49
2024-02-27T14:46:09.540Z,100029.40
2024-02-27T14:48:39.217Z,100030.90
2024-02-27T14:51:10.019Z,100034.79
2024-02-27T14:53:39.470Z,100037.66
2024-02-27T14:56:09.190Z,100038.75
2024-02-27T14:58:38.885Z,100030.85
2024-02-27T15:01:13.335Z,100040.14
2024-02-27T15:03:45.986Z,100041.32
2024-02-27T15:06:17.499Z,100039.99
2024-02-27T15:08:48.700Z,100045.70
2024-02-27T15:11:23.558Z,100047.50
2024-02-27T15:13:52.909Z,100052.79
2024-02-27T15:16:33.472Z,100037.85
2024-02-27T15:19:05.194Z,100052.27
2024-02-27T15:21:37.548Z,100054.34
2024-02-27T15:24:13.934Z,100060.92
2024-02-27T15:26:42.793Z,100063.32
2024-02-27T15:29:13.010Z,100067.33
2024-02-27T15:31:44.880Z,100067.83
2024-02-27T15:34:21.967Z,100067.64
2024-02-27T15:36:54.660Z,100065.30
2024-02-27T15:39:30.467Z,100069.72
2024-02-27T15:41:59.611Z,100073.67
2024-02-27T15:44:29.542Z,100075.98
2024-02-27T15:46:59.643Z,100076.04
2024-02-27T15:49:29.084Z,100079.61
2024-02-27T15:51:58.344Z,100084.72
2024-02-27T15:54:27.621Z,100083.06
2024-02-27T15:56:57.493Z,100082.23
2024-02-27T15:59:28.006Z,100087.98
2024-02-27T16:02:01.855Z,100090.15
2024-02-27T16:04:55.179Z,100090.48
2024-02-27T16:07:35.187Z,100091.95
2024-02-27T16:10:05.499Z,100094.17
2024-02-27T16:12:36.914Z,100096.02
2024-02-27T16:15:08.976Z,100097.87
2024-02-27T16:17:38.109Z,100098.38
2024-02-27T16:20:09.282Z,100101.80
2024-02-27T16:22:41.722Z,100100.84
2024-02-27T16:25:10.622Z,100105.67
2024-02-27T16:27:43.125Z,100110.42
2024-02-27T16:30:12.970Z,100107.17
2024-02-27T16:32:46.951Z,100106.58
2024-02-27T16:35:18.277Z,100108.23
2024-02-27T16:37:50.227Z,100107.49
2024-02-27T16:40:18.994Z,100107.33
2024-02-27T16:42:48.981Z,100109.21
2024-02-27T16:45:20.572Z,100109.23
2024-02-27T16:47:55.605Z,100112.41
2024-02-27T16:50:27.674Z,100115.21
2024-02-27T16:53:00.559Z,100123.67
2024-02-27T16:55:29.794Z,100128.96
2024-02-27T16:58:00.634Z,100132.89
2024-02-27T17:00:30.247Z,100130.66
2024-02-27T17:03:04.272Z,100130.42
2024-02-27T17:05:34.197Z,100128.84
2024-02-27T17:08:03.006Z,100131.02
2024-02-27T17:10:32.417Z,100131.90
2024-02-27T17:13:03.992Z,100131.33
2024-02-27T17:15:33.227Z,100136.41
2024-02-27T17:18:02.117Z,100144.55
2024-02-27T17:20:31.058Z,100150.13
2024-02-27T17:23:01.448Z,100152.52
2024-02-27T17:25:30.814Z,100149.82
2024-02-27T17:28:00.320Z,100150.04
2024-02-27T17:30:28.883Z,100147.10
2024-02-27T17:32:57.943Z,100144.63
2024-02-27T17:35:27.166Z,100145.20
2024-02-27T17:37:56.170Z,100149.53
2024-02-27T17:40:24.943Z,100151.75
2024-02-27T17:42:53.983Z,100149.22
2024-02-27T17:45:23.766Z,100145.80
2024-02-27T17:47:52.703Z,100148.21
2024-02-27T17:50:21.948Z,100148.95
2024-02-27T17:52:50.830Z,100152.36
2024-02-27T17:55:19.517Z,100151.45
2024-02-27T17:57:51.706Z,100153.66
2024-02-27T18:00:20.999Z,100160.36
2024-02-27T18:02:49.769Z,100164.27
2024-02-27T18:05:20.114Z,100157.61
2024-02-27T18:07:51.650Z,100155.27
2024-02-27T18:10:21.170Z,100155.52
2024-02-27T18:12:49.916Z,100156.01
2024-02-27T18:15:21.930Z,100160.13
2024-02-27T18:17:51.076Z,100159.63
2024-02-27T18:20:20.085Z,100158.09
2024-02-27T18:22:49.340Z,100159.23
2024-02-27T18:25:18.305Z,100158.02
2024-02-27T18:27:47.576Z,100152.14
2024-02-27T18:30:20.543Z,100159.46
2024-02-27T18:32:50.751Z,100148.16
2024-02-27T18:35:20.042Z,100158.49
2024-02-27T18:37:49.490Z,100143.70
2024-02-27T18:40:22.491Z,100165.17
2024-02-27T18:42:52.723Z,100169.57
2024-02-27T18:45:48.094Z,100172.39
2024-02-27T18:48:18.514Z,100172.03
2024-02-27T18:50:49.101Z,100173.56
2024-02-27T18:53:18.610Z,100178.43
2024-02-27T18:55:49.235Z,100181.81
2024-02-27T18:58:18.672Z,100181.68
2024-02-27T19:00:48.967Z,100184.80
2024-02-27T19:03:18.958Z,100186.81
2024-02-27T19:05:48.274Z,100185.33
2024-02-27T19:08:17.901Z,100175.33
2024-02-27T19:10:48.977Z,100178.20
2024-02-27T19:13:24.474Z,100176.59
2024-02-27T19:16:04.842Z,100178.11
2024-02-27T19:18:38.828Z,100182.31
2024-02-27T19:21:09.939Z,100176.27
2024-02-27T19:23:43.152Z,100187.98
2024-02-27T19:26:17.612Z,100195.30
2024-02-27T19:28:54.430Z,100188.10
2024-02-27T19:31:26.932Z,100190.23
2024-02-27T19:33:59.637Z,100195.02
2024-02-27T19:36:41.056Z,100197.21
2024-02-27T19:39:16.115Z,100201.42
2024-02-27T19:41:57.586Z,100197.00
2024-02-27T19:44:34.732Z,100199.73
2024-02-27T19:47:07.856Z,100203.48
2024-02-27T19:49:43.657Z,100198.88
2024-02-27T19:52:15.953Z,100191.77
2024-02-27T19:54:48.722Z,100202.86
2024-02-27T19:57:23.676Z,100206.27
2024-02-27T19:59:53.855Z,100204.36
2024-02-27T20:02:23.188Z,100206.09
2024-02-27T20:04:56.027Z,100204.64
2024-02-27T20:07:26.150Z,100208.27
2024-02-27T20:09:55.764Z,100200.95
2024-02-27T20:12:26.000Z,100202.85
2024-02-27T20:14:56.650Z,100200.64
2024-02-27T20:17:29.298Z,100201.48
2024-02-27T20:19:59.193Z,100201.97
2024-02-27T20:22:30.345Z,100208.71
2024-02-27T20:24:59.566Z,100215.56
2024-02-27T20:27:29.568Z,100217.50
2024-02-27T20:30:00.502Z,100216.08
2024-02-27T20:32:30.122Z,100213.17
2024-02-27T20:35:02.475Z,100215.20
2024-02-27T20:37:32.214Z,100220.16
2024-02-27T20:40:02.801Z,100219.69
2024-02-27T20:42:35.099Z,100223.65
2024-02-27T20:45:09.316Z,100221.69
2024-02-27T20:47:39.575Z,100224.45
2024-02-27T20:50:13.012Z,100226.73
2024-02-27T20:52:43.362Z,100222.08
2024-02-27T20:55:12.680Z,100231.36
2024-02-27T20:57:42.260Z,100231.65
2024-02-27T21:00:13.246Z,100234.05
2024-02-27T21:02:43.061Z,100230.00
2024-02-27T21:05:12.867Z,100231.90
2024-02-27T21:07:42.355Z,100234.05
2024-02-27T21:10:15.759Z,100228.69
2024-02-27T21:12:48.083Z,100234.73
2024-02-27T21:15:17.593Z,100231.65
2024-02-27T21:17:47.606Z,100227.35
2024-02-27T21:20:16.449Z,100225.34
2024-02-27T21:22:46.025Z,100226.60
2024-02-27T21:25:15.965Z,100223.60
2024-02-27T21:27:49.997Z,100224.27
2024-02-27T21:30:19.723Z,100224.84
2024-02-27T21:32:49.118Z,100229.16
2024-02-27T21:35:18.491Z,100226.47
2024-02-27T21:37:50.184Z,100220.10
2024-02-27T21:40:19.231Z,100221.72
2024-02-27T21:42:48.176Z,100226.38
2024-02-27T21:45:18.156Z,100231.67
2024-02-27T21:47:46.961Z,100231.95
2024-02-27T21:50:16.544Z,100230.95
2024-02-27T21:52:45.349Z,100232.93
2024-02-27T21:55:14.845Z,100234.55
2024-02-27T21:57:44.712Z,100234.30
2024-02-27T22:00:15.200Z,100235.16
2024-02-27T22:02:44.378Z,100236.06
2024-02-27T22:05:13.382Z,100238.35
2024-02-27T22:07:42.568Z,100238.56
2024-02-27T22:10:11.668Z,100239.14
2024-02-27T22:12:40.423Z,100237.48
2024-02-27T22:15:09.810Z,100235.31
2024-02-27T22:17:39.187Z,100232.10
2024-02-27T22:20:08.545Z,100231.76
2024-02-27T22:22:37.963Z,100229.45
2024-02-27T22:25:07.535Z,100231.59
2024-02-27T22:27:39.475Z,100233.90
2024-02-27T22:30:10.720Z,100228.17
2024-02-27T22:32:39.467Z,100229.24
2024-02-27T22:35:09.099Z,100225.44
2024-02-27T22:37:41.428Z,100228.70
2024-02-27T22:40:10.987Z,100226.30
2024-02-27T22:42:39.633Z,100226.14
2024-02-27T22:45:09.253Z,100219.61
2024-02-27T22:47:37.977Z,100226.11
2024-02-27T22:50:07.318Z,100227.81
2024-02-27T22:52:35.843Z,100228.96
2024-02-27T22:55:04.585Z,100230.84
2024-02-27T22:57:33.137Z,100221.45
2024-02-27T23:00:01.999Z,100236.09
2024-02-27T23:02:30.851Z,100232.08
2024-02-27T23:04:59.239Z,100235.02
2024-02-27T23:07:28.111Z,100239.77
2024-02-27T23:09:56.973Z,100242.92
2024-02-27T23:12:25.501Z,100242.05
2024-02-27T23:14:54.184Z,100245.02
2024-02-27T23:17:24.222Z,100246.11
2024-02-27T23:19:52.996Z,100245.62
2024-02-27T23:22:21.685Z,100253.83
2024-02-27T23:24:52.002Z,100257.95
2024-02-27T23:27:22.165Z,100261.37
2024-02-27T23:29:51.113Z,100258.42
2024-02-27T23:32:19.599Z,100255.52
2024-02-27T23:34:48.072Z,100254.64
2024-02-27T23:37:16.647Z,100253.89
2024-02-27T23:39:46.426Z,100251.08
2024-02-27T23:42:15.199Z,100256.07
2024-02-27T23:44:43.772Z,100258.55
2024-02-27T23:47:13.649Z,100258.02
2024-02-27T23:49:43.773Z,100259.51
2024-02-27T23:52:12.396Z,100244.55
2024-02-27T23:54:44.704Z,100259.11
2024-02-27T23:57:13.664Z,100262.51
2024-02-27T23:59:42.313Z,100260.05
